CMA CGM Musca — 2CAC8 — position and weather

sailwx.info

Track history (hours):
 
Tides and Currents Weather Stations Pressure Air Temp Water Temp Dewpoint Dewpoint Depression Visibility Wind Speed Wind Dir Waves Ship Positions

CMA CGM Musca

Last reported at 2016-Jul-26 12:32 UTC. Time now 2016-Jul-27 19:17 UTC.
Position N 02°01' E 102°12'.

Length 347 m; draft 13.7 m.

Type: Ship (hazmat cat A). MMSI: 235070914.

Date/timePositionNaut miles runAvg speedWind from/ knotsBaromVisibWave heightAir tempDewpointWater temp
2016-Jul-26 12:32N 02°01' E 102°12'1111.2
2016-Jul-26 11:32N 01°55' E 102°21'1111.4
2016-Jul-26 10:33N 01°50' E 102°31'1111.4
2016-Jul-26 09:33N 01°45' E 102°42'5911.6
2016-Jul-26 04:26N 01°13' E 103°31'1415.8
2016-Jul-26 03:33N 01°09' E 103°44'1312.6
2016-Jul-26 02:32N 01°14' E 103°56'1313.5
2016-Jul-26 01:33N 01°17' E 104°09'  
2016-Jul-21 04:05N 22°09' E 113°50'814.4
2016-Jul-21 03:33N 22°17' E 113°48'20 1.8
2016-Jul-20 16:27N 22°35' E 113°43'1112.0
2016-Jul-20 15:33N 22°25' E 113°46'1312.9
2016-Jul-20 14:33N 22°13' E 113°50'25110.0
2016-Jul-19 13:33N 23°37' E 118°06'1211.4
2016-Jul-19 12:32N 23°47' E 118°13'1111.3
2016-Jul-19 11:31N 23°57' E 118°19'1010.5
2016-Jul-19 10:33N 24°08' E 118°19'1515.0
2016-Jul-19 09:33N 24°20' E 118°10'1111.1
2016-Jul-19 08:33N 24°27' E 118°00'0 0.2
2016-Jul-19 07:17N 24°27' E 118°00'0 0.0
2016-Jul-19 06:28N 24°27' E 118°00'0 0.0
2016-Jul-19 04:22N 24°27' E 118°00'0 0.0
2016-Jul-19 03:27N 24°27' E 118°00'0 0.0
2016-Jul-19 02:27N 24°27' E 118°00'0 0.0
2016-Jul-19 01:26N 24°27' E 118°00'0 0.0
2016-Jul-19 00:29N 24°27' E 118°00'0 0.2
2016-Jul-18 22:32N 24°27' E 118°01'9 9.7
2016-Jul-18 21:33N 24°21' E 118°09'1211.5
2016-Jul-18 20:33N 24°13' E 118°18'1211.7
2016-Jul-18 19:33N 24°12' E 118°31'1313.0
2016-Jul-18 18:33N 24°17' E 118°44'1211.9
2016-Jul-18 17:32N 24°22' E 118°56'  
Track history (hours):
 
Tides and Currents Weather Stations Pressure Air Temp Water Temp Dewpoint Dewpoint Depression Visibility Wind Speed Wind Dir Waves Ship Positions

CMA CGM Musca

Last reported at 2016-Jul-26 12:32 UTC. Time now 2016-Jul-27 19:17 UTC.
Position N 02°01' E 102°12'.

Length 347 m; draft 13.7 m.

Type: Ship (hazmat cat A). MMSI: 235070914.

Date/timePositionNaut miles runAvg speedWind from/ knotsBaromVisibWave heightAir tempDewpointWater temp
2016-Jul-26 12:32N 02°01' E 102°12'1111.2
2016-Jul-26 11:32N 01°55' E 102°21'1111.4
2016-Jul-26 10:33N 01°50' E 102°31'1111.4
2016-Jul-26 09:33N 01°45' E 102°42'5911.6
2016-Jul-26 04:26N 01°13' E 103°31'1415.8
2016-Jul-26 03:33N 01°09' E 103°44'1312.6
2016-Jul-26 02:32N 01°14' E 103°56'1313.5
2016-Jul-26 01:33N 01°17' E 104°09'  
2016-Jul-21 04:05N 22°09' E 113°50'814.4
2016-Jul-21 03:33N 22°17' E 113°48'20 1.8
2016-Jul-20 16:27N 22°35' E 113°43'1112.0
2016-Jul-20 15:33N 22°25' E 113°46'1312.9
2016-Jul-20 14:33N 22°13' E 113°50'25110.0
2016-Jul-19 13:33N 23°37' E 118°06'1211.4
2016-Jul-19 12:32N 23°47' E 118°13'1111.3
2016-Jul-19 11:31N 23°57' E 118°19'1010.5
2016-Jul-19 10:33N 24°08' E 118°19'1515.0
2016-Jul-19 09:33N 24°20' E 118°10'1111.1
2016-Jul-19 08:33N 24°27' E 118°00'0 0.2
2016-Jul-19 07:17N 24°27' E 118°00'0 0.0
2016-Jul-19 06:28N 24°27' E 118°00'0 0.0
2016-Jul-19 04:22N 24°27' E 118°00'0 0.0
2016-Jul-19 03:27N 24°27' E 118°00'0 0.0
2016-Jul-19 02:27N 24°27' E 118°00'0 0.0
2016-Jul-19 01:26N 24°27' E 118°00'0 0.0
2016-Jul-19 00:29N 24°27' E 118°00'0 0.2
2016-Jul-18 22:32N 24°27' E 118°01'9 9.7
2016-Jul-18 21:33N 24°21' E 118°09'1211.5
2016-Jul-18 20:33N 24°13' E 118°18'1211.7
2016-Jul-18 19:33N 24°12' E 118°31'1313.0
2016-Jul-18 18:33N 24°17' E 118°44'1211.9
2016-Jul-18 17:32N 24°22' E 118°56'  

Dump ship's entire track history